Main page
METAR-TAF:

METAR-TAF

Airports :

Oil platform

Sleipner, Norway

latitude: 58-22-00N, longitude: 001-54-25E, elevation: 50 m

Current weather observation

The report was made 30 minutes ago, at 20:50 UTC
Wind 28 kt from the South
Temperature 9°C
Humidity 93%
Pressure 1021 hPa
Visibility: 0300 m
patches of fog

METAR: ENSL 202050Z AUTO 17028KT 0300NDV BCFG NCD 09/08 Q1021 W07/S4

Time: 23:20 (21:20 UTC)

Forecast

The report was made 4 hours and 57 minutes ago, at 16:23 UTC
Forecast valid from 20 at 16 UTC to 20 at 17 UTC
Wind 35 kt from the South
Visibility: 3000 m
Scattered clouds at a height of 400 ft
mist

TAF: ENSL 201623Z 2016/2017 19035KT 3000 BR SCT004

Weather observations and forecasts of more than 4000 airports (METAR and TAF reports).

The available stations are represented by yellow and red dots on the map.

Hover mouse over dot to see the name of the station.

Then click to see weather observations and forecasts.

To change the map : click on the green buttons with a black cross to zoom in, on the green button with a dash to zoom out, or on the green arrows for adjacent maps.


METAR-TAF: